createdAt,value
2019-05-02T00:01:31.359Z,36.18
2019-05-02T00:04:04.804Z,36.41
2019-05-02T00:06:42.935Z,36.47
2019-05-02T00:09:13.150Z,36.48
2019-05-02T00:11:58.240Z,36.56
2019-05-02T00:14:21.913Z,36.56
2019-05-02T00:16:55.372Z,36.59
2019-05-02T00:19:28.732Z,36.65
2019-05-02T00:22:02.096Z,36.59
2019-05-02T00:24:39.387Z,36.55
2019-05-02T00:27:10.449Z,36.58
2019-05-02T00:29:43.838Z,36.64
2019-05-02T00:32:22.467Z,36.68
2019-05-02T00:34:53.924Z,36.64
2019-05-02T00:37:29.066Z,36.64
2019-05-02T00:40:03.701Z,36.71
2019-05-02T00:42:37.171Z,36.28
2019-05-02T00:45:10.476Z,36.47
2019-05-02T00:47:47.850Z,36.52
2019-05-02T00:50:19.912Z,36.60
2019-05-02T00:52:53.254Z,36.50
2019-05-02T00:55:28.971Z,36.40
2019-05-02T00:58:01.638Z,36.44
2019-05-02T01:00:35.144Z,36.40
2019-05-02T01:03:11.234Z,35.95
2019-05-02T01:05:43.677Z,36.13
2019-05-02T01:08:17.317Z,36.22
2019-05-02T01:10:52.183Z,36.27
2019-05-02T01:13:26.470Z,36.28
2019-05-02T01:15:59.894Z,36.30
2019-05-02T01:18:37.279Z,36.30
2019-05-02T01:21:08.473Z,36.30
2019-05-02T01:23:43.377Z,36.34
2019-05-02T01:26:16.932Z,36.29
2019-05-02T01:28:54.385Z,36.29
2019-05-02T01:31:27.163Z,36.27
2019-05-02T01:34:00.525Z,36.28
2019-05-02T01:36:36.711Z,36.11
2019-05-02T01:39:08.929Z,36.28
2019-05-02T01:41:42.280Z,36.24
2019-05-02T01:44:15.589Z,36.29
2019-05-02T01:46:49.180Z,36.01
2019-05-02T01:49:23.176Z,36.18
2019-05-02T01:51:56.665Z,36.11
2019-05-02T01:54:29.985Z,36.29
2019-05-02T01:57:03.950Z,36.33
2019-05-02T01:59:39.535Z,36.29
2019-05-02T02:02:12.938Z,36.34
2019-05-02T02:04:47.333Z,36.38
2019-05-02T02:07:21.247Z,36.09
2019-05-02T02:09:55.371Z,36.26
2019-05-02T02:12:29.777Z,36.11
2019-05-02T02:15:04.270Z,36.20
2019-05-02T02:17:37.820Z,35.88
2019-05-02T02:20:14.018Z,36.17
2019-05-02T02:22:46.204Z,35.99
2019-05-02T02:25:24.655Z,36.23
2019-05-02T02:27:59.719Z,35.86
2019-05-02T02:30:34.343Z,36.14
2019-05-02T02:33:09.446Z,36.26
2019-05-02T02:35:49.806Z,36.30
2019-05-02T02:38:17.861Z,36.37
2019-05-02T02:40:51.237Z,36.34
2019-05-02T02:43:34.338Z,36.40
2019-05-02T02:46:00.892Z,36.42
2019-05-02T02:48:40.490Z,36.51
2019-05-02T02:51:09.232Z,36.50
2019-05-02T02:53:42.599Z,36.47
2019-05-02T02:56:16.066Z,36.34
2019-05-02T02:58:49.604Z,36.45
2019-05-02T03:01:29.101Z,36.41
2019-05-02T03:04:01.949Z,36.43
2019-05-02T03:06:38.460Z,36.29
2019-05-02T03:09:10.031Z,36.44
2019-05-02T03:11:43.325Z,36.47
2019-05-02T03:14:16.686Z,36.50
2019-05-02T03:16:51.079Z,36.15
2019-05-02T03:19:25.540Z,36.36
2019-05-02T03:22:03.754Z,36.46
2019-05-02T03:24:43.160Z,36.52
2019-05-02T03:27:11.470Z,36.17
2019-05-02T03:29:46.634Z,36.35
2019-05-02T03:32:31.904Z,36.10
2019-05-02T03:34:54.964Z,36.24
2019-05-02T03:37:28.265Z,36.22
2019-05-02T03:40:01.844Z,36.25
2019-05-02T03:42:43.700Z,35.73
2019-05-02T03:45:10.195Z,36.01
2019-05-02T03:47:46.478Z,36.25
2019-05-02T03:50:31.286Z,36.38
2019-05-02T03:52:53.547Z,36.33
2019-05-02T03:55:30.867Z,36.21
2019-05-02T03:58:13.470Z,36.12
2019-05-02T04:00:38.632Z,35.99
2019-05-02T04:03:12.140Z,35.89
2019-05-02T04:05:46.923Z,35.83
2019-05-02T04:08:22.749Z,35.73
2019-05-02T04:11:14.550Z,35.33
2019-05-02T04:13:48.216Z,35.30
2019-05-02T04:16:21.849Z,34.60
2019-05-02T04:18:57.849Z,34.82
2019-05-02T04:21:30.213Z,34.13
2019-05-02T04:24:12.935Z,34.26
2019-05-02T04:26:39.437Z,33.51
2019-05-02T04:29:12.784Z,33.93
2019-05-02T04:31:46.490Z,33.92
2019-05-02T04:34:19.802Z,33.84
2019-05-02T04:37:01.299Z,33.93
2019-05-02T04:39:29.627Z,33.92
2019-05-02T04:42:05.189Z,33.89
2019-05-02T04:44:44.595Z,33.62
2019-05-02T04:47:17.460Z,33.72
2019-05-02T04:49:51.987Z,33.55
2019-05-02T04:52:24.735Z,33.72
2019-05-02T04:55:11.257Z,33.57
2019-05-02T04:57:36.846Z,33.77
2019-05-02T05:00:11.770Z,33.71
2019-05-02T05:02:44.805Z,33.56
2019-05-02T05:05:25.676Z,33.16
2019-05-02T05:07:54.093Z,33.51
2019-05-02T05:10:27.862Z,33.08
2019-05-02T05:13:01.962Z,33.48
2019-05-02T05:15:44.832Z,32.79
2019-05-02T05:18:14.381Z,33.31
2019-05-02T05:20:52.748Z,32.78
2019-05-02T05:23:21.642Z,33.18
2019-05-02T05:26:02.934Z,33.31
2019-05-02T05:28:35.138Z,33.44
2019-05-02T05:31:08.259Z,33.46
2019-05-02T05:33:42.162Z,33.23
2019-05-02T05:36:19.794Z,33.37
2019-05-02T05:38:51.312Z,33.35
2019-05-02T05:41:24.709Z,33.50
2019-05-02T05:43:58.315Z,33.43
2019-05-02T05:46:33.518Z,33.64
2019-05-02T05:49:12.453Z,33.56
2019-05-02T05:51:43.411Z,33.60
2019-05-02T05:54:17.818Z,33.68
2019-05-02T05:56:51.502Z,33.90
2019-05-02T05:59:28.023Z,33.27
2019-05-02T06:02:00.376Z,33.60
2019-05-02T06:04:33.743Z,33.71
2019-05-02T06:07:07.387Z,34.05
2019-05-02T06:09:41.816Z,34.01
2019-05-02T06:12:15.265Z,33.89
2019-05-02T06:14:48.896Z,34.07
2019-05-02T06:17:28.523Z,33.97
2019-05-02T06:19:58.981Z,34.02
2019-05-02T06:22:32.664Z,33.81
2019-05-02T06:25:09.406Z,34.38
2019-05-02T06:27:42.146Z,34.28
2019-05-02T06:30:16.627Z,34.39
2019-05-02T06:32:54.792Z,33.74
2019-05-02T06:35:25.395Z,34.12
2019-05-02T06:37:58.765Z,33.96
2019-05-02T06:40:32.147Z,34.23
2019-05-02T06:43:09.579Z,33.67
2019-05-02T06:45:40.573Z,34.12
2019-05-02T06:48:17.635Z,33.76
2019-05-02T06:50:49.182Z,34.17
2019-05-02T06:53:22.585Z,34.32
2019-05-02T06:55:57.740Z,34.42
2019-05-02T06:58:37.168Z,34.58
2019-05-02T07:01:07.793Z,34.57
2019-05-02T07:03:45.908Z,34.72
2019-05-02T07:06:16.459Z,34.78
2019-05-02T07:08:49.900Z,34.81
2019-05-02T07:11:23.214Z,34.66
2019-05-02T07:13:56.586Z,34.79
2019-05-02T07:16:38.095Z,35.02
2019-05-02T07:19:05.054Z,35.05
2019-05-02T07:21:38.383Z,34.76
2019-05-02T07:24:11.736Z,35.11
2019-05-02T07:26:46.133Z,35.20
2019-05-02T07:29:21.915Z,35.19
2019-05-02T07:31:54.908Z,34.69
2019-05-02T07:34:28.287Z,35.28
2019-05-02T07:37:01.842Z,35.20
2019-05-02T07:39:36.063Z,35.30
2019-05-02T07:42:10.583Z,35.32
2019-05-02T07:44:44.248Z,35.44
2019-05-02T07:47:17.749Z,35.40
2019-05-02T07:49:51.368Z,35.33
2019-05-02T07:52:28.875Z,35.53
2019-05-02T07:55:01.210Z,35.66
2019-05-02T07:57:35.087Z,35.71
2019-05-02T08:00:12.202Z,35.30
2019-05-02T08:02:45.543Z,35.39
2019-05-02T08:05:21.680Z,35.48
2019-05-02T08:07:55.263Z,35.36
2019-05-02T08:10:28.847Z,35.43
2019-05-02T08:13:02.183Z,35.75
2019-05-02T08:15:35.569Z,35.59
2019-05-02T08:18:08.977Z,35.51
2019-05-02T08:20:42.294Z,35.17
2019-05-02T08:23:20.611Z,35.45
2019-05-02T08:25:50.921Z,35.80
2019-05-02T08:28:24.514Z,35.72
2019-05-02T08:30:58.455Z,35.54
2019-05-02T08:33:34.597Z,35.45
2019-05-02T08:36:07.252Z,34.87
2019-05-02T08:38:40.629Z,35.14
2019-05-02T08:41:19.978Z,35.32
2019-05-02T08:43:51.351Z,35.46
2019-05-02T08:46:24.662Z,35.56
2019-05-02T08:48:59.521Z,35.64
2019-05-02T08:51:33.089Z,35.67
2019-05-02T08:54:06.685Z,35.67
2019-05-02T08:56:39.992Z,35.68
2019-05-02T08:59:13.356Z,35.32
2019-05-02T09:01:49.490Z,35.59
2019-05-02T09:04:24.083Z,35.66
2019-05-02T09:06:58.865Z,35.79
2019-05-02T09:09:32.213Z,35.48
2019-05-02T09:12:12.232Z,35.95
2019-05-02T09:14:42.533Z,36.31
2019-05-02T09:17:16.679Z,35.79
2019-05-02T09:20:00.282Z,35.79
2019-05-02T09:22:25.265Z,36.27
2019-05-02T09:24:58.811Z,36.13
2019-05-02T09:27:32.156Z,36.39
2019-05-02T09:30:12.090Z,36.36
2019-05-02T09:32:45.030Z,36.48
2019-05-02T09:35:18.456Z,36.45
2019-05-02T09:37:52.331Z,36.48
2019-05-02T09:40:25.965Z,36.52
2019-05-02T09:43:02.110Z,36.57
2019-05-02T09:45:37.871Z,36.46
2019-05-02T09:48:12.701Z,36.70
2019-05-02T09:50:46.919Z,36.55
2019-05-02T09:53:25.249Z,36.65
2019-05-02T09:55:57.940Z,36.68
2019-05-02T09:58:32.033Z,36.70
2019-05-02T10:01:05.838Z,36.75
2019-05-02T10:03:39.211Z,36.89
2019-05-02T10:06:17.916Z,36.54
2019-05-02T10:08:47.861Z,36.84
2019-05-02T10:11:26.081Z,36.83
2019-05-02T10:13:57.425Z,36.70
2019-05-02T10:16:31.932Z,37.17
2019-05-02T10:19:09.531Z,37.23
2019-05-02T10:21:42.194Z,37.13
2019-05-02T10:24:15.619Z,37.55
2019-05-02T10:26:49.304Z,37.29
2019-05-02T10:29:28.132Z,37.35
2019-05-02T10:31:57.785Z,37.46
2019-05-02T10:34:32.998Z,37.61
2019-05-02T10:37:06.258Z,37.67
2019-05-02T10:39:39.754Z,37.79
2019-05-02T10:42:13.232Z,37.77
2019-05-02T10:44:46.763Z,38.08
2019-05-02T10:47:22.143Z,38.21
2019-05-02T10:49:55.811Z,38.24
2019-05-02T10:52:30.092Z,38.25
2019-05-02T10:55:06.105Z,38.61
2019-05-02T10:57:39.691Z,38.50
2019-05-02T11:00:15.202Z,38.62
2019-05-02T11:02:48.801Z,38.43
2019-05-02T11:05:26.283Z,38.58
2019-05-02T11:08:04.821Z,38.48
2019-05-02T11:10:32.411Z,38.86
2019-05-02T11:13:05.814Z,38.70
2019-05-02T11:15:39.149Z,38.83
2019-05-02T11:18:12.720Z,38.60
2019-05-02T11:20:46.141Z,38.94
2019-05-02T11:23:19.482Z,38.83
2019-05-02T11:25:52.904Z,39.22
2019-05-02T11:28:26.474Z,38.89
2019-05-02T11:31:04.968Z,39.31
2019-05-02T11:33:35.551Z,39.21
2019-05-02T11:36:08.842Z,39.11
2019-05-02T11:38:45.513Z,38.89
2019-05-02T11:41:17.226Z,38.96
2019-05-02T11:43:54.116Z,38.96
2019-05-02T11:46:25.817Z,39.02
2019-05-02T11:49:02.401Z,38.84
2019-05-02T11:51:36.276Z,39.15
2019-05-02T11:54:09.689Z,39.16
2019-05-02T11:56:48.918Z,39.00
2019-05-02T11:59:22.633Z,39.00
2019-05-02T12:01:59.726Z,38.92
2019-05-02T12:04:28.170Z,38.81
2019-05-02T12:07:04.947Z,38.98
2019-05-02T12:09:37.109Z,38.86
2019-05-02T12:12:12.362Z,38.64
2019-05-02T12:14:45.922Z,38.72
2019-05-02T12:17:21.777Z,38.59
2019-05-02T12:19:55.278Z,38.56
2019-05-02T12:22:29.147Z,38.56
2019-05-02T12:25:03.057Z,38.55
2019-05-02T12:27:36.685Z,38.56
2019-05-02T12:30:11.800Z,38.71
2019-05-02T12:32:45.586Z,38.55
2019-05-02T12:35:19.000Z,38.72
2019-05-02T12:37:55.357Z,38.73
2019-05-02T12:40:28.840Z,38.63
2019-05-02T12:43:02.864Z,39.14
2019-05-02T12:45:36.350Z,38.66
2019-05-02T12:48:12.908Z,38.73
2019-05-02T12:50:45.950Z,38.75
2019-05-02T12:53:21.785Z,38.94
2019-05-02T12:55:54.731Z,38.86
2019-05-02T12:58:28.151Z,39.10
2019-05-02T13:01:02.827Z,39.09
2019-05-02T13:03:36.832Z,39.06
2019-05-02T13:06:12.371Z,39.50
2019-05-02T13:08:45.889Z,39.28
2019-05-02T13:11:22.274Z,39.40
2019-05-02T13:13:55.729Z,39.19
2019-05-02T13:16:29.177Z,39.09
2019-05-02T13:19:06.067Z,39.24
2019-05-02T13:21:42.215Z,39.39
2019-05-02T13:24:16.299Z,39.27
2019-05-02T13:26:53.923Z,39.31
2019-05-02T13:29:23.557Z,39.20
2019-05-02T13:31:57.010Z,39.07
2019-05-02T13:34:31.975Z,39.07
2019-05-02T13:37:05.564Z,39.18
2019-05-02T13:39:38.888Z,38.61
2019-05-02T13:42:12.599Z,38.82
2019-05-02T13:44:45.929Z,38.92
2019-05-02T13:47:19.228Z,38.92
2019-05-02T13:49:56.389Z,39.05
2019-05-02T13:52:27.794Z,39.20
2019-05-02T13:55:01.787Z,39.17
2019-05-02T13:57:41.907Z,39.06
2019-05-02T14:00:10.327Z,39.04
2019-05-02T14:02:43.857Z,39.09
2019-05-02T14:05:18.791Z,39.02
2019-05-02T14:07:57.004Z,38.98
2019-05-02T14:10:32.201Z,39.02
2019-05-02T14:13:03.373Z,39.19
2019-05-02T14:15:37.214Z,39.11
2019-05-02T14:18:12.396Z,39.09
2019-05-02T14:20:46.826Z,39.26
2019-05-02T14:23:22.160Z,39.31
2019-05-02T14:25:57.123Z,39.17
2019-05-02T14:28:32.263Z,39.27
2019-05-02T14:31:05.638Z,39.32
2019-05-02T14:33:39.018Z,39.33
2019-05-02T14:36:12.653Z,39.24
2019-05-02T14:38:46.016Z,39.13
2019-05-02T14:41:21.803Z,39.34
2019-05-02T14:43:55.334Z,39.39
2019-05-02T14:46:33.694Z,39.56
2019-05-02T14:49:03.670Z,39.59
2019-05-02T14:51:38.566Z,39.48
2019-05-02T14:54:12.126Z,39.60
2019-05-02T14:56:47.714Z,39.80
2019-05-02T14:59:22.600Z,39.84
2019-05-02T15:01:58.009Z,39.62
2019-05-02T15:04:32.236Z,39.44
2019-05-02T15:07:05.625Z,39.54
2019-05-02T15:09:39.300Z,39.52
2019-05-02T15:12:15.987Z,39.44
2019-05-02T15:14:49.799Z,39.43
2019-05-02T15:17:22.822Z,39.41
2019-05-02T15:19:56.162Z,39.39
2019-05-02T15:22:35.781Z,39.33
2019-05-02T15:25:07.938Z,39.45
2019-05-02T15:27:43.065Z,39.38
2019-05-02T15:30:16.536Z,39.31
2019-05-02T15:32:49.837Z,39.25
2019-05-02T15:35:26.846Z,39.09
2019-05-02T15:38:05.157Z,39.11
2019-05-02T15:40:47.329Z,38.94
2019-05-02T15:43:12.468Z,39.07
2019-05-02T15:45:48.006Z,39.07
2019-05-02T15:48:27.053Z,39.11
2019-05-02T15:51:00.252Z,39.00
2019-05-02T15:53:32.477Z,38.83
2019-05-02T15:56:15.770Z,39.00
2019-05-02T15:58:42.605Z,38.96
2019-05-02T16:01:17.048Z,38.84
2019-05-02T16:03:52.130Z,38.64
2019-05-02T16:06:30.798Z,38.44
2019-05-02T16:09:02.441Z,38.31
2019-05-02T16:11:37.685Z,38.41
2019-05-02T16:14:12.782Z,38.28
2019-05-02T16:16:46.231Z,38.10
2019-05-02T16:19:24.850Z,38.04
2019-05-02T16:21:54.920Z,37.93
2019-05-02T16:24:28.441Z,37.73
2019-05-02T16:27:02.641Z,37.79
2019-05-02T16:29:36.136Z,37.45
2019-05-02T16:32:09.451Z,37.75
2019-05-02T16:34:43.512Z,37.85
2019-05-02T16:37:16.937Z,38.08
2019-05-02T16:39:51.221Z,38.01
2019-05-02T16:42:24.555Z,38.13
2019-05-02T16:44:57.902Z,38.22
2019-05-02T16:47:32.588Z,37.68
2019-05-02T16:50:07.448Z,37.68
2019-05-02T16:52:43.711Z,37.45
2019-05-02T16:55:21.006Z,37.53
2019-05-02T16:57:56.697Z,37.75
2019-05-02T17:00:28.208Z,37.75
2019-05-02T17:03:02.012Z,37.83
2019-05-02T17:05:39.294Z,37.61
2019-05-02T17:08:18.659Z,37.71
2019-05-02T17:10:47.197Z,37.86
2019-05-02T17:13:21.793Z,37.77
2019-05-02T17:15:55.439Z,38.10
2019-05-02T17:18:28.742Z,38.00
2019-05-02T17:21:02.306Z,37.33
2019-05-02T17:23:37.474Z,37.82
2019-05-02T17:26:12.286Z,37.99
2019-05-02T17:28:47.369Z,38.05
2019-05-02T17:31:23.035Z,38.07
2019-05-02T17:33:56.535Z,38.20
2019-05-02T17:36:30.635Z,38.19
2019-05-02T17:39:08.326Z,38.32
2019-05-02T17:41:45.658Z,38.07
2019-05-02T17:44:22.132Z,38.28
2019-05-02T17:46:58.444Z,38.17
2019-05-02T17:49:31.835Z,38.15
2019-05-02T17:52:05.752Z,37.20
2019-05-02T17:54:39.392Z,37.82
2019-05-02T17:57:12.729Z,37.85
2019-05-02T17:59:46.104Z,37.67
2019-05-02T18:02:19.726Z,37.97
2019-05-02T18:04:55.781Z,37.93
2019-05-02T18:07:32.142Z,37.82
2019-05-02T18:10:16.817Z,38.08
2019-05-02T18:12:42.935Z,37.89
2019-05-02T18:15:16.357Z,38.03
2019-05-02T18:17:49.713Z,38.17
2019-05-02T18:20:25.322Z,38.08
2019-05-02T18:23:00.009Z,38.17
2019-05-02T18:25:33.349Z,38.09
2019-05-02T18:28:06.727Z,38.23
2019-05-02T18:30:41.752Z,38.19
2019-05-02T18:33:15.348Z,38.11
2019-05-02T18:35:50.279Z,38.18
2019-05-02T18:38:24.625Z,38.28
2019-05-02T18:41:00.251Z,38.31
2019-05-02T18:43:40.884Z,38.26
2019-05-02T18:46:12.765Z,38.23
2019-05-02T18:48:49.131Z,38.20
2019-05-02T18:51:21.839Z,38.08
2019-05-02T18:53:58.030Z,38.05
2019-05-02T18:56:34.012Z,38.07
2019-05-02T18:59:05.905Z,38.15
2019-05-02T19:01:39.293Z,38.15
2019-05-02T19:04:13.206Z,38.16
2019-05-02T19:06:46.683Z,37.84
2019-05-02T19:09:24.989Z,37.94
2019-05-02T19:12:04.980Z,37.71
2019-05-02T19:14:30.160Z,37.75
2019-05-02T19:17:07.180Z,37.74
2019-05-02T19:19:38.515Z,37.69
2019-05-02T19:22:13.255Z,37.79
2019-05-02T19:24:46.896Z,37.82
2019-05-02T19:27:20.999Z,37.83
2019-05-02T19:29:54.840Z,37.65
2019-05-02T19:32:28.547Z,37.77
2019-05-02T19:35:06.962Z,37.81
2019-05-02T19:37:46.032Z,37.90
2019-05-02T19:40:14.896Z,37.76
2019-05-02T19:42:48.385Z,38.23
2019-05-02T19:45:21.894Z,38.12
2019-05-02T19:47:57.657Z,38.17
2019-05-02T19:50:39.305Z,37.68
2019-05-02T19:53:14.903Z,38.01
2019-05-02T19:55:44.292Z,38.33
2019-05-02T19:58:17.665Z,38.26
2019-05-02T20:00:52.609Z,38.21
2019-05-02T20:03:26.328Z,38.42
2019-05-02T20:06:02.287Z,38.48
2019-05-02T20:08:35.562Z,38.61
2019-05-02T20:11:10.014Z,38.72
2019-05-02T20:13:44.827Z,38.59
2019-05-02T20:16:22.490Z,38.81
2019-05-02T20:18:55.986Z,38.98
2019-05-02T20:21:29.352Z,38.89
2019-05-02T20:24:04.296Z,38.79
2019-05-02T20:26:39.343Z,38.83
2019-05-02T20:29:12.740Z,38.91
2019-05-02T20:31:46.063Z,38.59
2019-05-02T20:34:19.845Z,38.87
2019-05-02T20:36:53.172Z,38.94
2019-05-02T20:39:26.355Z,38.99
2019-05-02T20:41:59.688Z,39.08
2019-05-02T20:44:33.053Z,39.20
2019-05-02T20:47:06.394Z,39.06
2019-05-02T20:49:39.770Z,39.10
2019-05-02T20:52:13.114Z,39.18
2019-05-02T20:54:47.141Z,39.18
2019-05-02T20:57:21.496Z,39.27
2019-05-02T20:59:55.166Z,39.17
2019-05-02T21:02:28.509Z,39.28
2019-05-02T21:05:02.736Z,39.08
2019-05-02T21:07:36.258Z,39.30
2019-05-02T21:10:09.673Z,39.21
2019-05-02T21:12:43.048Z,39.28
2019-05-02T21:15:18.221Z,39.33
2019-05-02T21:17:51.454Z,39.41
2019-05-02T21:20:25.020Z,39.38
2019-05-02T21:22:58.353Z,39.32
2019-05-02T21:25:32.554Z,38.99
2019-05-02T21:28:06.355Z,39.03
2019-05-02T21:30:41.563Z,38.95
2019-05-02T21:33:35.559Z,39.10
2019-05-02T21:36:08.917Z,39.19
2019-05-02T21:38:42.888Z,39.08
2019-05-02T21:41:16.555Z,39.10
2019-05-02T21:43:51.694Z,39.08
2019-05-02T21:46:25.175Z,39.17
2019-05-02T21:48:58.569Z,39.17
2019-05-02T21:51:32.056Z,39.20
2019-05-02T21:54:05.683Z,39.00
2019-05-02T21:56:39.033Z,39.09
2019-05-02T21:59:12.489Z,39.18
2019-05-02T22:01:46.417Z,39.23
2019-05-02T22:04:19.779Z,39.33
2019-05-02T22:06:53.200Z,39.23
2019-05-02T22:09:26.742Z,39.12
2019-05-02T22:12:00.567Z,39.17
2019-05-02T22:14:33.921Z,39.00
2019-05-02T22:17:08.917Z,39.20
2019-05-02T22:19:42.987Z,39.19
2019-05-02T22:22:16.340Z,39.09
2019-05-02T22:24:52.665Z,38.91
2019-05-02T22:27:25.679Z,39.13
2019-05-02T22:29:59.065Z,39.02
2019-05-02T22:32:32.502Z,39.14
2019-05-02T22:35:06.216Z,39.17
2019-05-02T22:37:39.693Z,39.00
2019-05-02T22:40:14.211Z,39.04
2019-05-02T22:42:47.669Z,39.02
2019-05-02T22:45:21.773Z,38.84
2019-05-02T22:47:55.486Z,38.87
2019-05-02T22:50:28.866Z,39.13
2019-05-02T22:53:02.411Z,39.06
2019-05-02T22:55:36.066Z,39.07
2019-05-02T22:58:11.085Z,38.84
2019-05-02T23:00:44.535Z,38.87
2019-05-02T23:03:17.911Z,38.93
2019-05-02T23:05:52.629Z,38.91
2019-05-02T23:08:26.275Z,38.91
2019-05-02T23:10:59.643Z,38.87
2019-05-02T23:13:32.981Z,38.85
2019-05-02T23:16:06.516Z,38.84
2019-05-02T23:18:39.908Z,38.85
2019-05-02T23:21:13.270Z,38.82
2019-05-02T23:23:47.365Z,38.81
2019-05-02T23:26:22.431Z,38.83
2019-05-02T23:28:56.041Z,38.78
2019-05-02T23:31:29.396Z,38.73
2019-05-02T23:34:02.736Z,38.78
2019-05-02T23:36:36.117Z,38.75
2019-05-02T23:39:09.500Z,38.75
2019-05-02T23:41:42.884Z,38.70
2019-05-02T23:44:16.213Z,38.76
2019-05-02T23:46:51.510Z,38.72
2019-05-02T23:49:24.775Z,38.72
2019-05-02T23:51:59.106Z,38.66
2019-05-02T23:54:32.560Z,38.69
2019-05-02T23:57:06.021Z,38.71
2019-05-02T23:59:39.372Z,38.74
